Time;durP1;ratioP1;P1;durP2;ratioP2;P2;SDS_P1;SDS_P2;PMS_P1;PMS_P2;Temp;Humidity;BMP_temperature;BMP_pressure;BME280_temperature;BME280_humidity;BME280_pressure;Samples;Min_cycle;Max_cycle;Signal;HPM_P1;HPM_P2
2023/12/04 00:01:54;;;;;;;;;14.50;13.00;;;;;3.93;51.97;100664.75;5079403;28;46333;-46
2023/12/04 00:04:19;;;;;;;;;12.50;10.50;;;;;3.95;52.12;100649.69;5079386;28;45312;-43
2023/12/04 00:06:45;;;;;;;;;13.50;6.00;;;;;3.97;50.86;100638.09;5079449;27;45247;-45
2023/12/04 00:09:10;;;;;;;;;12.75;10.00;;;;;3.93;51.02;100628.75;5079255;27;45474;-44
2023/12/04 00:11:36;;;;;;;;;11.50;10.25;;;;;3.96;51.01;100630.31;5079627;28;45465;-45
2023/12/04 00:14:01;;;;;;;;;17.00;13.00;;;;;3.94;52.30;100624.31;5079302;27;45322;-46
2023/12/04 00:16:26;;;;;;;;;16.00;14.00;;;;;3.93;51.51;100610.31;5079627;27;45355;-45
2023/12/04 00:18:52;;;;;;;;;15.00;12.25;;;;;3.95;52.36;100608.41;5079579;27;45303;-43
2023/12/04 00:21:17;;;;;;;;;15.75;11.50;;;;;3.91;51.03;100604.31;5079330;28;46115;-45
2023/12/04 00:23:42;;;;;;;;;7.50;7.50;;;;;3.81;51.43;100590.13;5078854;28;45346;-45
2023/12/04 00:26:08;;;;;;;;;10.00;8.50;;;;;3.94;52.14;100603.25;5079401;28;45364;-46
2023/12/04 00:28:36;;;;;;;;;10.25;10.25;;;;;3.93;52.05;100599.78;5079103;28;45410;-45
2023/12/04 00:31:02;;;;;;;;;14.75;9.00;;;;;3.92;52.24;100597.28;5079097;27;45446;-45
2023/12/04 00:33:27;;;;;;;;;11.00;7.00;;;;;3.95;51.33;100586.50;5078513;27;45326;-44
2023/12/04 00:35:52;;;;;;;;;15.25;9.75;;;;;3.96;51.43;100586.44;5079000;27;45295;-45
2023/12/04 00:38:18;;;;;;;;;14.75;10.50;;;;;3.96;51.62;100586.44;5079391;28;45321;-47
2023/12/04 00:40:44;;;;;;;;;6.75;6.75;;;;;4.00;52.65;100581.75;5078621;28;45456;-45
2023/12/04 00:43:09;;;;;;;;;10.25;8.50;;;;;4.00;52.44;100584.38;5078301;28;45483;-45
2023/12/04 00:45:34;;;;;;;;;12.25;7.00;;;;;3.99;52.12;100566.94;5078907;27;45354;-45
2023/12/04 00:47:59;;;;;;;;;13.50;9.25;;;;;4.02;52.08;100561.44;5078985;28;45444;-46
2023/12/04 00:50:25;;;;;;;;;15.25;12.50;;;;;4.03;52.03;100557.03;5078846;27;46307;-45
2023/12/04 00:52:50;;;;;;;;;14.25;9.50;;;;;4.01;52.91;100546.63;5078588;27;45409;-45
2023/12/04 00:55:15;;;;;;;;;10.00;7.25;;;;;4.00;52.90;100542.28;5078907;27;45417;-45
2023/12/04 00:57:41;;;;;;;;;10.75;9.75;;;;;4.03;52.68;100530.69;5079051;28;45380;-46
2023/12/04 01:00:07;;;;;;;;;17.00;10.75;;;;;4.05;52.97;100524.41;5059967;28;54114;-43
2023/12/04 01:02:32;;;;;;;;;12.25;8.00;;;;;4.07;52.16;100527.75;5059849;28;45375;-45
2023/12/04 01:04:57;;;;;;;;;11.00;9.25;;;;;4.06;52.72;100526.06;5059118;28;45261;-45
2023/12/04 01:07:22;;;;;;;;;9.75;8.50;;;;;4.08;52.35;100518.06;5078079;27;45565;-45
2023/12/04 01:09:48;;;;;;;;;14.50;10.50;;;;;4.12;53.23;100511.59;5078066;28;46299;-45
2023/12/04 01:12:13;;;;;;;;;6.75;6.00;;;;;4.15;53.12;100508.75;5078461;28;45324;-45
2023/12/04 01:14:38;;;;;;;;;11.50;7.50;;;;;4.18;52.57;100493.59;5078180;28;45299;-44
2023/12/04 01:17:04;;;;;;;;;10.50;8.50;;;;;4.16;53.10;100487.59;5078824;28;45386;-45
2023/12/04 01:19:29;;;;;;;;;5.50;5.50;;;;;4.10;52.31;100468.78;5079082;28;45239;-46
2023/12/04 01:21:54;;;;;;;;;11.25;8.50;;;;;4.20;52.90;100475.88;5078889;27;47106;-45
2023/12/04 01:24:20;;;;;;;;;14.25;8.00;;;;;4.25;53.16;100465.00;5079075;28;45600;-45
2023/12/04 01:26:45;;;;;;;;;13.50;9.75;;;;;4.28;52.47;100469.22;5079515;27;45448;-46
2023/12/04 01:29:10;;;;;;;;;12.25;9.25;;;;;4.30;53.00;100470.78;5079049;28;46224;-46
2023/12/04 01:31:36;;;;;;;;;11.75;7.50;;;;;4.29;53.04;100455.94;5079176;27;45409;-46
2023/12/04 01:34:01;;;;;;;;;9.50;9.00;;;;;4.34;53.08;100452.94;5078945;27;45508;-45
2023/12/04 01:36:27;;;;;;;;;8.00;5.50;;;;;4.32;52.60;100447.81;5060902;28;45397;-44
2023/12/04 01:38:52;;;;;;;;;14.50;11.25;;;;;4.30;52.45;100447.09;5078775;27;47225;-45
2023/12/04 01:41:17;;;;;;;;;10.75;10.75;;;;;4.28;52.78;100445.53;5059862;28;45438;-46
2023/12/04 01:43:43;;;;;;;;;8.00;6.00;;;;;4.29;51.97;100449.81;5078302;28;45363;-44
2023/12/04 01:46:09;;;;;;;;;23.75;10.75;;;;;4.27;52.30;100442.06;5078253;28;45372;-45
2023/12/04 01:48:36;;;;;;;;;10.50;8.25;;;;;4.28;52.33;100454.25;5077850;27;47156;-45
2023/12/04 01:51:05;;;;;;;;;10.25;7.50;;;;;4.27;52.81;100449.94;5077617;27;45243;-45
2023/12/04 01:53:32;;;;;;;;;8.00;8.00;;;;;4.29;52.64;100434.03;5077439;27;45325;-44
2023/12/04 01:55:57;;;;;;;;;13.25;9.25;;;;;4.30;52.47;100451.50;5077751;28;45514;-45
2023/12/04 01:58:23;;;;;;;;;11.50;8.00;;;;;4.31;53.32;100434.78;5076096;28;49163;-45
2023/12/04 02:00:48;;;;;;;;;14.25;11.25;;;;;4.25;52.60;100421.06;5077624;28;45454;-44
2023/12/04 02:03:14;;;;;;;;;8.25;8.25;;;;;4.27;52.22;100417.53;5077461;28;45708;-45
2023/12/04 02:05:39;;;;;;;;;9.25;9.00;;;;;4.27;52.41;100441.22;5059494;28;45523;-45
2023/12/04 02:08:05;;;;;;;;;10.00;10.00;;;;;4.24;52.89;100440.47;5077704;27;46052;-45
2023/12/04 02:10:30;;;;;;;;;13.00;11.00;;;;;4.22;52.60;100452.09;5077215;27;45354;-44
2023/12/04 02:12:56;;;;;;;;;5.00;3.00;;;;;4.22;53.47;100447.66;5077638;27;45485;-44
2023/12/04 02:15:21;;;;;;;;;15.25;8.25;;;;;4.21;53.13;100443.34;5077338;28;45351;-45
2023/12/04 02:17:47;;;;;;;;;9.00;7.25;;;;;4.24;53.35;100432.56;5077215;28;46046;-46
2023/12/04 02:20:14;;;;;;;;;14.00;8.25;;;;;4.21;52.68;100426.69;5077454;28;45330;-44
2023/12/04 02:22:39;;;;;;;;;9.25;9.25;;;;;4.25;53.46;100421.06;5077118;27;45219;-43
2023/12/04 02:25:06;;;;;;;;;8.75;8.00;;;;;4.29;52.92;100437.50;5077339;27;45409;-44
2023/12/04 02:27:40;;;;;;;;;7.00;7.00;;;;;4.27;53.56;100431.50;5076660;28;47549;-43
2023/12/04 02:30:10;;;;;;;;;9.50;8.00;;;;;4.30;53.43;100428.66;5077077;28;45194;-44
2023/12/04 02:32:42;;;;;;;;;11.25;9.50;;;;;4.31;53.38;100432.13;5077170;27;45397;-44
2023/12/04 02:35:09;;;;;;;;;9.75;7.00;;;;;4.15;53.60;100404.31;5077053;28;45408;-45
2023/12/04 02:37:35;;;;;;;;;12.00;11.50;;;;;4.24;53.58;100419.41;5076939;27;46167;-45
2023/12/04 02:40:01;;;;;;;;;9.75;5.75;;;;;4.32;53.09;100432.00;5076669;27;45953;-45
2023/12/04 02:42:26;;;;;;;;;10.00;8.00;;;;;4.35;54.01;100431.78;5077094;28;45405;-43
2023/12/04 02:44:52;;;;;;;;;11.00;8.00;;;;;4.34;54.08;100429.25;5076822;28;45436;-44
2023/12/04 02:47:17;;;;;;;;;12.00;9.50;;;;;4.37;54.46;100424.59;5076606;28;46350;-44
2023/12/04 02:49:43;;;;;;;;;15.50;7.50;;;;;4.36;53.94;100427.34;5076950;27;45435;-44
2023/12/04 02:52:08;;;;;;;;;9.50;8.00;;;;;4.36;54.49;100425.56;5076962;28;45252;-45
2023/12/04 02:54:33;;;;;;;;;12.25;8.00;;;;;4.39;54.35;100427.13;5077131;28;45245;-45
2023/12/04 02:56:59;;;;;;;;;12.75;8.00;;;;;4.42;54.04;100417.19;5076086;28;52011;-46
2023/12/04 02:59:24;;;;;;;;;9.00;9.00;;;;;4.41;54.35;100407.63;5076648;28;45287;-43
2023/12/04 03:01:49;;;;;;;;;11.75;8.00;;;;;4.45;54.63;100398.53;5076902;28;45452;-44
2023/12/04 03:04:14;;;;;;;;;8.50;6.50;;;;;4.46;53.97;100388.81;5076804;28;45486;-45
2023/12/04 03:06:40;;;;;;;;;14.50;9.00;;;;;4.44;54.00;100388.94;5076475;28;51169;-44
2023/12/04 03:09:05;;;;;;;;;9.25;8.00;;;;;4.44;54.29;100378.41;5076401;27;45275;-44
2023/12/04 03:11:30;;;;;;;;;8.75;6.00;;;;;4.48;54.08;100368.50;5077336;28;45357;-43
2023/12/04 03:13:56;;;;;;;;;7.00;7.00;;;;;4.47;53.48;100367.66;5077837;27;45235;-45
2023/12/04 03:16:22;;;;;;;;;9.25;9.25;;;;;4.41;54.21;100356.75;5076690;28;47202;-44
2023/12/04 03:18:47;;;;;;;;;13.50;9.50;;;;;4.48;53.72;100352.69;5076285;28;47326;-45
2023/12/04 03:21:12;;;;;;;;;12.75;10.00;;;;;4.50;54.83;100354.22;5076511;28;45279;-44
2023/12/04 03:23:37;;;;;;;;;11.00;7.50;;;;;4.50;54.08;100346.34;5076737;27;45353;-44
2023/12/04 03:26:03;;;;;;;;;5.50;5.00;;;;;4.55;54.55;100356.53;5075999;27;46113;-45
2023/12/04 03:28:28;;;;;;;;;7.00;6.00;;;;;4.58;53.93;100339.66;5079154;28;45303;-44
2023/12/04 03:30:54;;;;;;;;;10.25;7.75;;;;;4.59;54.00;100342.16;5079947;27;45417;-44
2023/12/04 03:33:19;;;;;;;;;10.75;9.00;;;;;4.63;54.21;100338.31;5061999;28;45410;-43
2023/12/04 03:35:45;;;;;;;;;8.00;7.25;;;;;4.64;54.72;100347.94;5080061;28;46113;-44
2023/12/04 03:38:10;;;;;;;;;13.75;7.00;;;;;4.65;54.48;100338.22;5079871;27;45327;-45
2023/12/04 03:40:35;;;;;;;;;11.00;8.00;;;;;4.69;54.67;100331.75;5061804;28;45324;-44
2023/12/04 03:43:01;;;;;;;;;6.25;6.00;;;;;4.70;54.40;100329.00;5080257;28;45609;-44
2023/12/04 03:45:26;;;;;;;;;10.75;8.00;;;;;4.69;53.95;100339.66;5079676;28;46208;-45
2023/12/04 03:47:52;;;;;;;;;9.00;7.50;;;;;4.69;54.52;100334.41;5079634;28;45339;-45
2023/12/04 03:50:17;;;;;;;;;5.00;5.00;;;;;4.68;54.57;100328.28;5079960;28;45225;-44
2023/12/04 03:52:43;;;;;;;;;10.00;7.25;;;;;4.59;53.97;100304.44;5079758;27;45379;-44
2023/12/04 03:55:09;;;;;;;;;8.50;7.25;;;;;4.70;54.65;100315.00;5079117;27;47354;-45
2023/12/04 03:57:34;;;;;;;;;10.75;7.00;;;;;4.74;54.16;100319.06;5079387;28;45372;-44
2023/12/04 03:59:59;;;;;;;;;11.00;6.25;;;;;4.75;54.99;100326.84;5079420;28;46179;-45
2023/12/04 04:02:24;;;;;;;;;10.00;10.00;;;;;4.72;55.09;100315.72;5079868;28;45129;-44
2023/12/04 04:04:50;;;;;;;;;14.00;7.50;;;;;4.72;56.89;100319.19;5079141;28;47068;-45
2023/12/04 04:07:17;;;;;;;;;10.50;4.00;;;;;4.70;57.37;100321.09;5079563;27;45358;-46
2023/12/04 04:09:42;;;;;;;;;10.50;7.75;;;;;4.70;57.18;100312.34;5079616;27;45480;-44
2023/12/04 04:12:08;;;;;;;;;9.75;7.00;;;;;4.65;58.31;100304.81;5079612;28;45389;-45
2023/12/04 04:14:33;;;;;;;;;11.00;7.50;;;;;4.75;58.84;100318.94;5079155;27;45425;-44
2023/12/04 04:16:58;;;;;;;;;10.25;5.50;;;;;4.73;58.99;100315.59;5079215;28;49666;-45
2023/12/04 04:19:24;;;;;;;;;8.75;8.00;;;;;4.70;60.04;100309.72;5079526;27;45340;-44
2023/12/04 04:21:49;;;;;;;;;7.50;7.50;;;;;4.71;61.29;100314.84;5079406;28;45286;-43
2023/12/04 04:24:14;;;;;;;;;8.75;5.00;;;;;4.68;61.06;100304.59;5079140;27;45512;-45
2023/12/04 04:26:40;;;;;;;;;7.50;7.50;;;;;4.68;62.44;100295.84;5078796;27;45322;-46
2023/12/04 04:29:05;;;;;;;;;12.75;5.50;;;;;4.61;62.01;100287.56;5079342;28;45279;-45
2023/12/04 04:31:30;;;;;;;;;7.00;7.00;;;;;4.61;63.51;100284.94;5079290;27;45354;-45
2023/12/04 04:33:56;;;;;;;;;7.50;5.50;;;;;4.58;63.15;100277.25;5078968;27;46305;-44
2023/12/04 04:36:21;;;;;;;;;5.00;5.00;;;;;4.57;62.72;100277.38;5078857;27;45409;-44
2023/12/04 04:38:46;;;;;;;;;5.25;5.25;;;;;4.52;63.99;100280.38;5077802;28;45421;-44
2023/12/04 04:41:15;;;;;;;;;3.75;3.00;;;;;4.49;64.43;100268.28;5079287;28;45485;-45
2023/12/04 04:43:41;;;;;;;;;9.25;8.50;;;;;4.46;65.54;100250.06;5060507;28;46980;-44
2023/12/04 04:46:06;;;;;;;;;6.50;6.50;;;;;4.48;66.08;100253.44;5078846;27;45416;-46
2023/12/04 04:48:31;;;;;;;;;12.50;7.00;;;;;4.45;66.88;100242.31;5078909;28;45243;-44
2023/12/04 04:50:57;;;;;;;;;5.00;5.00;;;;;4.46;67.88;100233.44;5079084;27;45478;-46
2023/12/04 04:53:22;;;;;;;;;8.25;6.75;;;;;4.46;66.62;100230.81;5078813;28;46177;-45
2023/12/04 04:55:48;;;;;;;;;7.00;6.00;;;;;4.47;67.63;100224.59;5078551;27;45657;-44
2023/12/04 04:58:13;;;;;;;;;5.00;5.00;;;;;4.46;68.46;100225.53;5078758;28;45307;-45
2023/12/04 05:00:38;;;;;;;;;14.00;7.00;;;;;4.45;68.62;100226.50;5078914;27;45347;-45
2023/12/04 05:03:04;;;;;;;;;9.50;7.00;;;;;4.46;67.79;100229.00;5077128;28;45420;-44
2023/12/04 05:05:29;;;;;;;;;14.00;9.00;;;;;4.42;70.28;100218.84;5078647;27;45392;-45
2023/12/04 05:07:54;;;;;;;;;4.25;4.00;;;;;4.38;69.05;100213.00;5078621;28;45346;-45
2023/12/04 05:10:20;;;;;;;;;9.50;8.75;;;;;4.37;68.92;100200.75;5078683;27;45611;-44
2023/12/04 05:12:45;;;;;;;;;7.25;6.50;;;;;4.37;69.68;100211.28;5078248;27;45534;-44
2023/12/04 05:15:10;;;;;;;;;8.50;8.00;;;;;4.34;71.59;100200.16;5078118;27;46611;-44
2023/12/04 05:17:35;;;;;;;;;8.00;8.00;;;;;4.30;70.64;100185.56;5078576;27;45357;-43
2023/12/04 05:20:01;;;;;;;;;4.75;4.75;;;;;4.28;72.33;100193.59;5078563;27;45371;-44
2023/12/04 05:22:26;;;;;;;;;7.50;7.50;;;;;4.21;72.51;100187.97;5078056;28;47578;-44
2023/12/04 05:24:51;;;;;;;;;5.00;5.00;;;;;4.22;73.77;100173.00;5078192;28;45331;-44
2023/12/04 05:27:17;;;;;;;;;7.00;6.50;;;;;4.14;73.78;100154.34;5077994;28;45343;-44
2023/12/04 05:29:42;;;;;;;;;13.50;7.75;;;;;4.20;73.86;100165.22;5078570;27;45374;-46
2023/12/04 05:32:07;;;;;;;;;8.50;8.50;;;;;4.15;73.30;100162.13;5077846;27;51837;-45
2023/12/04 05:34:33;;;;;;;;;9.50;9.00;;;;;4.12;74.68;100167.59;5077927;27;45211;-45
2023/12/04 05:36:58;;;;;;;;;11.00;9.50;;;;;4.11;73.33;100150.16;5078315;28;45227;-45
2023/12/04 05:39:23;;;;;;;;;5.75;5.50;;;;;4.07;73.95;100143.44;5078186;27;45251;-44
2023/12/04 05:41:49;;;;;;;;;11.25;9.50;;;;;4.01;75.57;100128.16;5077724;27;47178;-43
2023/12/04 05:44:14;;;;;;;;;8.00;8.00;;;;;4.02;75.24;100114.03;5077112;28;45242;-43
2023/12/04 05:46:39;;;;;;;;;10.25;4.50;;;;;4.01;75.42;100117.63;5077763;27;45498;-43
2023/12/04 05:49:05;;;;;;;;;20.75;8.50;;;;;3.91;75.35;100106.97;5078039;27;45280;-44
2023/12/04 05:51:30;;;;;;;;;10.25;8.00;;;;;3.91;76.23;100116.66;5077105;28;46164;-44
2023/12/04 05:53:55;;;;;;;;;6.00;6.00;;;;;3.93;75.11;100115.59;5077560;27;47590;-44
2023/12/04 05:56:21;;;;;;;;;8.50;6.50;;;;;3.90;74.71;100102.66;5077729;27;45215;-45
2023/12/04 05:58:46;;;;;;;;;8.50;5.00;;;;;3.90;76.57;100092.13;5077726;28;45440;-46
2023/12/04 06:01:11;;;;;;;;;7.50;7.00;;;;;3.91;75.61;100085.06;5077518;27;45331;-42
2023/12/04 06:03:37;;;;;;;;;7.25;7.25;;;;;3.91;75.32;100082.44;5077557;28;45178;-44
2023/12/04 06:06:02;;;;;;;;;10.00;8.00;;;;;3.89;74.15;100072.06;5077651;28;45521;-45
2023/12/04 06:08:28;;;;;;;;;5.50;5.50;;;;;3.86;76.71;100068.81;5077640;28;45334;-45
2023/12/04 06:10:53;;;;;;;;;5.00;5.00;;;;;3.85;75.55;100061.88;5077558;28;45983;-43
2023/12/04 06:13:19;;;;;;;;;5.00;5.00;;;;;3.85;77.59;100059.25;5077180;28;45399;-45
2023/12/04 06:15:44;;;;;;;;;8.50;7.75;;;;;3.86;76.39;100055.66;5077399;28;45516;-45
2023/12/04 06:18:09;;;;;;;;;10.00;7.25;;;;;3.86;77.11;100043.34;5076650;28;45546;-44
2023/12/04 06:20:35;;;;;;;;;12.25;7.75;;;;;3.83;77.54;100035.69;5075571;28;46214;-45
2023/12/04 06:23:00;;;;;;;;;5.00;5.00;;;;;3.81;78.54;100037.59;5077406;28;45314;-44
2023/12/04 06:25:26;;;;;;;;;7.25;5.00;;;;;3.88;78.72;100030.09;5077261;27;45237;-44
2023/12/04 06:27:51;;;;;;;;;7.50;5.00;;;;;3.84;78.62;100018.97;5068189;27;45596;-45
2023/12/04 06:30:17;;;;;;;;;5.00;4.25;;;;;3.89;77.85;100021.22;5056633;28;46930;-45
2023/12/04 06:32:43;;;;;;;;;8.50;3.50;;;;;3.88;79.58;100033.53;5056683;28;45650;-44
2023/12/04 06:35:10;;;;;;;;;11.00;8.25;;;;;3.92;78.82;100028.88;5056964;28;45253;-45
2023/12/04 06:37:38;;;;;;;;;9.25;6.25;;;;;3.96;81.24;100039.03;5056979;28;45324;-45
2023/12/04 06:40:04;;;;;;;;;8.50;7.00;;;;;3.97;79.07;100034.59;5056590;28;46157;-45
2023/12/04 06:42:30;;;;;;;;;5.50;4.00;;;;;3.99;78.27;100030.03;5056504;28;45321;-44
2023/12/04 06:44:56;;;;;;;;;10.25;7.25;;;;;4.06;78.09;100025.16;5056613;28;45284;-46
2023/12/04 06:47:23;;;;;;;;;6.00;2.00;;;;;4.04;81.15;100021.78;5056766;28;45336;-45
2023/12/04 06:49:48;;;;;;;;;5.50;5.00;;;;;4.01;81.47;100012.34;5056600;28;45975;-44
2023/12/04 06:52:14;;;;;;;;;4.25;4.25;;;;;4.00;79.66;100008.03;5056431;28;45278;-45
2023/12/04 06:54:39;;;;;;;;;7.75;5.00;;;;;4.00;81.99;100005.41;5056415;28;45375;-45
2023/12/04 06:57:04;;;;;;;;;4.75;2.00;;;;;3.99;82.59;100003.72;5056638;28;45308;-45
2023/12/04 06:59:30;;;;;;;;;5.50;5.50;;;;;3.88;81.80;99980.94;5056383;28;46252;-44
2023/12/04 07:01:55;;;;;;;;;6.00;6.00;;;;;3.97;83.75;100003.88;5055405;28;45347;-46
2023/12/04 07:04:21;;;;;;;;;8.00;4.00;;;;;3.99;82.81;99993.22;5056342;28;45528;-43
2023/12/04 07:06:48;;;;;;;;;7.25;7.00;;;;;4.00;83.54;99992.25;5056562;28;45277;-45
2023/12/04 07:09:13;;;;;;;;;11.50;7.00;;;;;3.99;84.63;99985.31;5056213;28;46147;-46
2023/12/04 07:11:39;;;;;;;;;4.25;4.00;;;;;3.99;83.16;99988.78;5056260;28;45428;-47
2023/12/04 07:14:04;;;;;;;;;7.50;5.00;;;;;3.91;85.24;99980.66;5056078;28;45386;-43
2023/12/04 07:16:30;;;;;;;;;8.00;7.50;;;;;3.97;85.65;99979.34;5056547;28;45590;-45
2023/12/04 07:18:55;;;;;;;;;6.00;6.00;;;;;3.88;84.67;99962.50;5055340;28;45734;-46
2023/12/04 07:21:21;;;;;;;;;4.75;4.75;;;;;3.99;85.14;99969.53;5056361;28;45423;-46
2023/12/04 07:23:46;;;;;;;;;7.75;7.00;;;;;4.02;85.25;99973.72;5056424;28;45328;-46
2023/12/04 07:26:12;;;;;;;;;11.00;5.00;;;;;4.03;85.34;99968.31;5056596;28;45404;-45
2023/12/04 07:28:38;;;;;;;;;7.75;7.00;;;;;4.05;86.69;99965.59;5052882;28;47332;-45
2023/12/04 07:31:03;;;;;;;;;4.00;4.00;;;;;4.02;86.60;99969.28;5092153;27;45289;-46
2023/12/04 07:33:29;;;;;;;;;4.25;4.25;;;;;4.05;86.85;99971.69;5076719;28;45269;-46
2023/12/04 07:35:54;;;;;;;;;7.25;7.00;;;;;4.07;86.71;99971.53;5075986;27;45403;-46
2023/12/04 07:38:20;;;;;;;;;10.25;7.00;;;;;4.10;85.65;99963.41;5076508;28;46361;-45
2023/12/04 07:40:45;;;;;;;;;4.50;3.50;;;;;4.09;85.80;99956.44;5075705;28;45553;-45
2023/12/04 07:43:11;;;;;;;;;14.00;8.00;;;;;4.14;84.74;99954.31;5076569;28;45471;-47
2023/12/04 07:45:37;;;;;;;;;10.50;5.00;;;;;4.18;87.21;99953.09;5076623;27;45327;-45
2023/12/04 07:48:03;;;;;;;;;7.75;4.00;;;;;4.17;86.07;99954.88;5076065;28;46038;-46
2023/12/04 07:50:29;;;;;;;;;8.75;4.50;;;;;4.20;86.78;99944.09;5076361;28;45471;-46
2023/12/04 07:52:54;;;;;;;;;4.75;4.75;;;;;4.28;86.68;99958.44;5076023;27;45377;-46
2023/12/04 07:55:19;;;;;;;;;5.00;5.00;;;;;4.25;86.76;99949.81;5076492;27;45367;-47
2023/12/04 07:57:45;;;;;;;;;7.50;6.00;;;;;4.25;87.08;99951.59;5075803;27;47892;-47
2023/12/04 08:00:14;;;;;;;;;9.00;7.75;;;;;4.27;87.72;99943.59;5075850;27;47751;-45
2023/12/04 08:02:39;;;;;;;;;12.75;6.50;;;;;4.24;88.72;99953.41;5076101;27;45303;-46
2023/12/04 08:05:04;;;;;;;;;7.75;7.00;;;;;4.30;88.05;99932.78;5076112;28;45454;-47
2023/12/04 08:07:30;;;;;;;;;4.25;4.00;;;;;4.32;88.19;99931.72;5075976;28;46057;-46
2023/12/04 08:09:56;;;;;;;;;4.75;4.75;;;;;4.34;89.11;99911.38;5075884;28;45301;-46
2023/12/04 08:12:21;;;;;;;;;7.50;5.00;;;;;4.17;88.57;99881.19;5075924;28;45249;-46
2023/12/04 08:14:47;;;;;;;;;6.50;6.00;;;;;4.32;89.06;99905.41;5079312;27;45385;-46
2023/12/04 08:17:12;;;;;;;;;9.00;4.50;;;;;4.43;88.44;99904.50;5079344;27;45446;-46
2023/12/04 08:19:38;;;;;;;;;7.00;5.00;;;;;4.49;85.90;99918.00;5079249;28;45434;-47
2023/12/04 08:22:04;;;;;;;;;10.75;1.00;;;;;4.55;85.97;99913.16;5079431;28;45363;-46
2023/12/04 08:24:29;;;;;;;;;7.25;4.25;;;;;4.61;86.20;99907.41;5079646;27;45428;-46
2023/12/04 08:26:56;;;;;;;;;5.00;4.00;;;;;4.67;87.05;99897.16;5079397;27;45250;-45
2023/12/04 08:29:22;;;;;;;;;8.25;5.00;;;;;4.72;87.53;99895.00;5079232;27;45506;-45
2023/12/04 08:31:47;;;;;;;;;4.00;4.00;;;;;4.75;88.14;99886.81;5079129;28;45339;-46
2023/12/04 08:34:12;;;;;;;;;5.00;4.50;;;;;4.71;88.51;99888.03;5079624;27;45483;-45
2023/12/04 08:36:38;;;;;;;;;4.25;4.25;;;;;4.73;86.94;99888.75;5078844;27;46115;-46
2023/12/04 08:39:03;;;;;;;;;6.50;5.25;;;;;4.69;88.75;99873.34;5079170;28;45276;-46
2023/12/04 08:41:29;;;;;;;;;10.25;5.50;;;;;4.78;89.63;99884.91;5079051;27;45342;-45
2023/12/04 08:43:55;;;;;;;;;9.00;2.00;;;;;4.66;89.53;99861.25;5079184;28;45565;-47
2023/12/04 08:46:21;;;;;;;;;3.00;2.00;;;;;4.68;88.49;99875.16;5078834;27;46127;-45
2023/12/04 08:48:46;;;;;;;;;3.50;2.00;;;;;4.80;89.45;99873.25;5078907;27;45235;-45
2023/12/04 08:51:18;;;;;;;;;4.25;4.25;;;;;4.73;88.96;99856.31;5079076;27;45232;-47
2023/12/04 08:53:44;;;;;;;;;2.00;2.00;;;;;4.87;87.07;99873.56;5078920;27;45411;-45
2023/12/04 08:56:10;;;;;;;;;7.00;6.25;;;;;4.90;89.31;99868.03;5078661;27;47019;-44
2023/12/04 08:58:36;;;;;;;;;1.25;1.25;;;;;4.92;88.11;99860.81;5077563;27;45560;-47
2023/12/04 09:01:01;;;;;;;;;2.00;2.00;;;;;4.96;88.74;99863.06;5094547;27;45381;-46
2023/12/04 09:03:27;;;;;;;;;4.00;4.00;;;;;4.86;89.25;99830.56;5079300;28;45269;-46
2023/12/04 09:05:54;;;;;;;;;4.25;4.25;;;;;5.04;88.70;99853.66;5078504;28;50753;-45
2023/12/04 09:08:19;;;;;;;;;6.00;5.00;;;;;5.08;89.35;99845.34;5078056;28;45446;-46
2023/12/04 09:10:45;;;;;;;;;5.50;5.50;;;;;5.10;88.18;99847.84;5094495;27;45321;-46
2023/12/04 09:13:11;;;;;;;;;6.00;4.00;;;;;5.16;87.38;99831.50;5078670;27;45341;-46
2023/12/04 09:15:36;;;;;;;;;5.00;2.50;;;;;5.21;87.88;99840.69;5078487;28;45397;-46
2023/12/04 09:18:02;;;;;;;;;5.00;2.00;;;;;5.27;87.31;99834.03;5077912;28;45458;-46
2023/12/04 09:20:27;;;;;;;;;2.00;2.00;;;;;5.33;87.31;99838.78;5078600;28;45443;-44
2023/12/04 09:22:52;;;;;;;;;5.25;4.25;;;;;5.36;88.38;99837.69;5078574;28;45417;-45
2023/12/04 09:25:18;;;;;;;;;5.00;2.50;;;;;5.26;88.19;99827.09;5076069;28;46175;-46
2023/12/04 09:27:43;;;;;;;;;5.75;5.00;;;;;5.35;89.34;99826.31;5078293;27;45332;-46
2023/12/04 09:30:09;;;;;;;;;9.50;4.00;;;;;5.38;87.69;99835.72;5078329;27;45418;-45
2023/12/04 09:32:34;;;;;;;;;4.00;4.00;;;;;5.42;88.20;99824.75;5078611;28;45221;-48
2023/12/04 09:34:59;;;;;;;;;4.50;4.50;;;;;5.50;88.70;99808.25;5078081;28;45363;-46
2023/12/04 09:37:25;;;;;;;;;5.50;2.00;;;;;5.56;88.16;99807.69;5078336;28;45496;-44
2023/12/04 09:39:50;;;;;;;;;2.00;2.00;;;;;5.59;87.71;99801.31;5078086;27;46368;-47
2023/12/04 09:42:18;;;;;;;;;1.00;1.00;;;;;5.56;88.32;99778.69;5078424;28;45430;-47
2023/12/04 09:44:43;;;;;;;;;15.00;4.25;;;;;5.46;88.87;99772.56;5077811;28;46064;-48
2023/12/04 09:47:10;;;;;;;;;5.00;4.00;;;;;5.59;88.42;99782.84;5077916;27;45489;-45
2023/12/04 09:49:35;;;;;;;;;4.50;4.50;;;;;5.67;88.08;99790.91;5078057;28;45525;-47
2023/12/04 09:52:04;;;;;;;;;7.75;5.00;;;;;5.70;88.01;99778.28;5078068;28;45506;-45
2023/12/04 09:54:30;;;;;;;;;4.00;4.00;;;;;5.76;88.61;99783.00;5062591;27;45525;-46
2023/12/04 09:56:56;;;;;;;;;8.00;6.25;;;;;5.81;87.77;99772.00;5071719;28;46006;-48
2023/12/04 09:59:27;;;;;;;;;5.00;5.00;;;;;5.76;87.54;99751.31;5074754;28;46515;-48
2023/12/04 10:01:52;;;;;;;;;10.50;6.75;;;;;5.80;88.44;99751.06;5075059;28;45314;-47
2023/12/04 10:04:19;;;;;;;;;4.25;4.25;;;;;5.82;88.16;99757.03;5074528;28;45346;-44
2023/12/04 10:06:45;;;;;;;;;7.00;4.00;;;;;5.84;89.59;99753.28;5075044;28;45470;-48
2023/12/04 10:09:13;;;;;;;;;5.75;5.00;;;;;5.79;90.72;99744.13;5074484;28;45627;-47
2023/12/04 10:11:42;;;;;;;;;8.00;4.50;;;;;5.78;89.69;99739.81;5075053;28;45821;-45
2023/12/04 10:14:19;;;;;;;;;9.00;5.00;;;;;5.64;91.05;99710.22;5074492;28;46011;-47
2023/12/04 10:16:45;;;;;;;;;5.25;4.25;;;;;5.77;90.53;99725.75;5074834;28;45299;-45
2023/12/04 10:19:20;;;;;;;;;6.50;4.75;;;;;5.79;90.94;99713.28;5074229;28;45383;-45
2023/12/04 10:21:48;;;;;;;;;2.00;2.00;;;;;5.83;91.70;99709.38;5075036;28;45565;-46
2023/12/04 10:24:26;;;;;;;;;10.00;2.00;;;;;5.88;90.86;99714.22;5074367;28;47248;-45
2023/12/04 10:26:52;;;;;;;;;1.50;1.50;;;;;5.97;90.84;99700.22;5074203;28;45392;-44
2023/12/04 10:29:17;;;;;;;;;4.25;4.25;;;;;6.02;91.70;99719.09;5074348;28;45640;-45
2023/12/04 10:31:43;;;;;;;;;4.00;4.00;;;;;6.13;88.56;99707.53;5073798;27;45371;-45
2023/12/04 10:34:11;;;;;;;;;3.25;1.00;;;;;6.20;89.93;99693.63;5074119;27;47239;-44
2023/12/04 10:36:37;;;;;;;;;4.00;4.00;;;;;6.28;90.41;99692.91;5074180;27;45377;-46
2023/12/04 10:39:05;;;;;;;;;6.25;6.25;;;;;6.39;88.18;99702.44;5074732;27;45368;-46
2023/12/04 10:41:33;;;;;;;;;5.00;5.00;;;;;6.52;89.03;99679.16;5075377;28;45457;-44
2023/12/04 10:44:00;;;;;;;;;4.50;4.50;;;;;6.65;88.38;99692.84;5073553;27;46368;-47
2023/12/04 10:46:27;;;;;;;;;5.00;5.00;;;;;6.70;88.49;99677.41;5074028;28;45751;-47
2023/12/04 10:48:53;;;;;;;;;11.00;6.00;;;;;6.75;88.53;99671.69;5074474;28;45518;-46
2023/12/04 10:51:19;;;;;;;;;2.50;2.50;;;;;6.78;88.31;99667.88;5074245;28;45536;-45
2023/12/04 10:53:44;;;;;;;;;5.50;4.75;;;;;6.82;88.80;99659.50;5073873;28;46287;-46
2023/12/04 10:56:27;;;;;;;;;0.00;0.00;;;;;6.90;88.31;99658.75;5074055;28;45493;-44
2023/12/04 10:58:54;;;;;;;;;7.00;7.00;;;;;6.89;87.50;99646.53;5074282;28;45284;-45
2023/12/04 11:01:21;;;;;;;;;6.75;6.50;;;;;7.03;87.38;99653.09;5074133;28;45455;-45
2023/12/04 11:03:54;;;;;;;;;10.25;6.50;;;;;7.07;86.82;99644.72;5073786;28;45394;-54
2023/12/04 11:06:21;;;;;;;;;14.00;7.25;;;;;7.18;86.02;99625.16;5073836;28;45363;-46
2023/12/04 11:08:48;;;;;;;;;5.00;5.00;;;;;7.31;86.06;99620.31;5073849;28;45506;-44
2023/12/04 11:11:22;;;;;;;;;12.75;5.00;;;;;7.48;85.10;99622.09;5074130;28;45461;-45
2023/12/04 11:13:56;;;;;;;;;8.00;4.00;;;;;7.56;84.51;99594.03;5073398;28;46227;-45
2023/12/04 11:16:33;;;;;;;;;5.00;5.00;;;;;7.65;84.26;99617.75;5073543;28;45418;-46
2023/12/04 11:19:09;;;;;;;;;4.75;4.00;;;;;7.78;84.25;99597.97;5073983;28;45455;-46
2023/12/04 11:21:35;;;;;;;;;5.25;5.25;;;;;7.85;84.46;99588.41;5074434;28;45427;-46
2023/12/04 11:24:02;;;;;;;;;6.00;6.00;;;;;7.77;84.54;99573.31;5074093;28;46172;-46
2023/12/04 11:26:29;;;;;;;;;4.50;4.50;;;;;7.90;84.29;99578.19;5073707;28;45289;-47
2023/12/04 11:28:55;;;;;;;;;11.75;5.75;;;;;8.22;83.50;99567.72;5073640;27;45518;-47